createdAt,value
2018-02-01T00:00:38.211Z,49.00
2018-02-01T00:03:05.632Z,48.80
2018-02-01T00:05:33.060Z,49.00
2018-02-01T00:08:01.287Z,49.20
2018-02-01T00:10:28.707Z,49.00
2018-02-01T00:12:56.149Z,49.40
2018-02-01T00:15:23.566Z,49.30
2018-02-01T00:17:51.015Z,49.30
2018-02-01T00:20:18.455Z,49.30
2018-02-01T00:22:45.871Z,49.20
2018-02-01T00:25:14.084Z,49.60
2018-02-01T00:27:41.519Z,49.50
2018-02-01T00:30:08.960Z,49.40
2018-02-01T00:32:36.427Z,50.00
2018-02-01T00:35:03.847Z,49.40
2018-02-01T00:37:31.296Z,49.70
2018-02-01T00:39:58.716Z,49.90
2018-02-01T00:42:26.172Z,50.00
2018-02-01T00:44:53.590Z,49.90
2018-02-01T00:47:21.039Z,49.80
2018-02-01T00:49:48.483Z,50.10
2018-02-01T00:52:15.939Z,50.20
2018-02-01T00:54:43.384Z,50.30
2018-02-01T00:57:10.807Z,50.10
2018-02-01T00:59:38.240Z,50.00
2018-02-01T01:02:06.443Z,49.80
2018-02-01T01:04:33.868Z,49.80
2018-02-01T01:07:02.071Z,49.80
2018-02-01T01:09:29.526Z,49.80
2018-02-01T01:11:56.954Z,49.80
2018-02-01T01:14:25.139Z,50.30
2018-02-01T01:16:52.579Z,50.10
2018-02-01T01:19:20.015Z,50.40
2018-02-01T01:21:47.452Z,50.70
2018-02-01T01:24:14.910Z,50.90
2018-02-01T01:26:42.331Z,51.30
2018-02-01T01:29:09.746Z,51.30
2018-02-01T01:31:37.196Z,51.60
2018-02-01T01:34:04.623Z,52.20
2018-02-01T01:36:32.088Z,52.30
2018-02-01T01:38:59.594Z,53.00
2018-02-01T01:41:27.035Z,53.10
2018-02-01T01:43:54.485Z,53.30
2018-02-01T01:46:21.899Z,53.20
2018-02-01T01:48:49.342Z,53.10
2018-02-01T01:51:16.771Z,53.00
2018-02-01T01:53:44.212Z,53.10
2018-02-01T01:56:11.646Z,53.40
2018-02-01T01:58:39.078Z,53.70
2018-02-01T02:01:06.723Z,53.90
2018-02-01T02:03:34.920Z,54.50
2018-02-01T02:06:02.356Z,54.50
2018-02-01T02:08:29.780Z,55.00
2018-02-01T02:10:57.217Z,55.50
2018-02-01T02:13:24.661Z,55.40
2018-02-01T02:15:52.079Z,55.30
2018-02-01T02:18:19.527Z,55.30
2018-02-01T02:20:46.952Z,55.60
2018-02-01T02:23:14.458Z,56.00
2018-02-01T02:25:41.882Z,55.90
2018-02-01T02:28:09.329Z,55.90
2018-02-01T02:30:36.764Z,55.80
2018-02-01T02:33:04.200Z,55.90
2018-02-01T02:35:31.632Z,56.00
2018-02-01T02:37:59.846Z,56.70
2018-02-01T02:40:27.279Z,56.60
2018-02-01T02:42:54.719Z,57.10
2018-02-01T02:45:22.147Z,57.20
2018-02-01T02:47:49.577Z,57.60
2018-02-01T02:50:17.011Z,57.70
2018-02-01T02:52:44.436Z,57.80
2018-02-01T02:55:11.869Z,57.90
2018-02-01T02:57:39.310Z,58.00
2018-02-01T03:00:06.735Z,58.30
2018-02-01T03:02:34.173Z,58.40
2018-02-01T03:05:02.440Z,59.10
2018-02-01T03:07:29.878Z,59.00
2018-02-01T03:09:57.315Z,59.20
2018-02-01T03:12:24.747Z,59.40
2018-02-01T03:14:52.177Z,59.60
2018-02-01T03:17:20.371Z,60.10
2018-02-01T03:19:47.807Z,60.10
2018-02-01T03:22:16.181Z,60.80
2018-02-01T03:24:43.612Z,60.80
2018-02-01T03:27:11.096Z,60.40
2018-02-01T03:29:38.542Z,60.40
2018-02-01T03:32:05.987Z,60.60
2018-02-01T03:34:33.417Z,60.50
2018-02-01T03:37:00.852Z,60.80
2018-02-01T03:39:28.281Z,60.80
2018-02-01T03:41:55.715Z,60.50
2018-02-01T03:44:23.178Z,60.30
2018-02-01T03:46:50.606Z,60.40
2018-02-01T03:49:18.210Z,60.00
2018-02-01T03:51:45.659Z,60.00
2018-02-01T03:54:13.099Z,60.30
2018-02-01T03:56:40.538Z,59.70
2018-02-01T03:59:07.958Z,59.50
2018-02-01T04:01:35.395Z,58.80
2018-02-01T04:04:03.588Z,58.70
2018-02-01T04:06:31.035Z,58.60
2018-02-01T04:08:58.543Z,58.90
2018-02-01T04:11:25.962Z,58.90
2018-02-01T04:13:53.403Z,58.90
2018-02-01T04:16:21.611Z,58.90
2018-02-01T04:18:49.026Z,58.90
2018-02-01T04:21:17.211Z,59.30
2018-02-01T04:23:44.649Z,59.20
2018-02-01T04:26:12.078Z,59.40
2018-02-01T04:28:39.543Z,59.60
2018-02-01T04:31:06.982Z,59.70
2018-02-01T04:33:34.579Z,59.70
2018-02-01T04:36:02.029Z,59.70
2018-02-01T04:38:29.452Z,59.70
2018-02-01T04:40:56.878Z,59.70
2018-02-01T04:43:24.316Z,59.40
2018-02-01T04:45:52.510Z,59.40
2018-02-01T04:48:19.950Z,59.30
2018-02-01T04:50:47.406Z,59.30
2018-02-01T04:53:14.837Z,59.60
2018-02-01T04:55:42.327Z,60.20
2018-02-01T04:58:09.752Z,60.10
2018-02-01T05:00:37.175Z,60.20
2018-02-01T05:03:04.613Z,60.00
2018-02-01T05:05:32.051Z,60.00
2018-02-01T05:08:00.267Z,60.70
2018-02-01T05:10:27.755Z,60.70
2018-02-01T05:12:55.129Z,60.70
2018-02-01T05:15:23.318Z,62.40
2018-02-01T05:17:50.970Z,62.30
2018-02-01T05:20:18.674Z,62.50
2018-02-01T05:22:46.092Z,62.90
2018-02-01T05:25:14.304Z,64.70
2018-02-01T05:27:41.723Z,64.60
2018-02-01T05:30:09.937Z,65.40
2018-02-01T05:32:37.371Z,65.20
2018-02-01T05:35:04.803Z,66.90
2018-02-01T05:37:33.229Z,67.50
2018-02-01T05:40:00.862Z,67.50
2018-02-01T05:42:28.290Z,68.30
2018-02-01T05:44:55.753Z,69.00
2018-02-01T05:47:23.207Z,69.40
2018-02-01T05:49:50.659Z,69.60
2018-02-01T05:52:18.095Z,70.20
2018-02-01T05:54:45.534Z,72.40
2018-02-01T05:57:12.981Z,74.40
2018-02-01T05:59:40.429Z,73.50
2018-02-01T06:02:07.967Z,72.50
2018-02-01T06:04:35.411Z,72.80
2018-02-01T06:07:03.607Z,73.70
2018-02-01T06:09:31.037Z,73.60
2018-02-01T06:11:58.477Z,73.90
2018-02-01T06:14:25.904Z,74.10
2018-02-01T06:16:53.351Z,76.80
2018-02-01T06:19:20.790Z,77.60
2018-02-01T06:21:48.220Z,78.70
2018-02-01T06:24:15.689Z,79.20
2018-02-01T06:26:43.112Z,79.70
2018-02-01T06:29:10.558Z,80.40
2018-02-01T06:31:38.024Z,81.30
2018-02-01T06:34:05.558Z,80.00
2018-02-01T06:36:33.019Z,80.70
2018-02-01T06:39:00.442Z,79.40
2018-02-01T06:41:27.868Z,78.70
2018-02-01T06:43:55.312Z,79.50
2018-02-01T06:46:22.850Z,78.30
2018-02-01T06:48:50.287Z,79.20
2018-02-01T06:51:17.718Z,80.10
2018-02-01T06:53:45.219Z,80.00
2018-02-01T06:56:12.670Z,79.70
2018-02-01T06:58:40.120Z,80.10
2018-02-01T07:01:24.231Z,80.50
2018-02-01T07:03:51.698Z,81.00
2018-02-01T07:06:19.968Z,82.10
2018-02-01T07:08:47.413Z,82.00
2018-02-01T07:11:14.869Z,82.20
2018-02-01T07:13:42.307Z,82.90
2018-02-01T07:16:09.736Z,83.20
2018-02-01T07:18:37.183Z,82.50
2018-02-01T07:21:04.601Z,82.40
2018-02-01T07:23:32.045Z,83.00
2018-02-01T07:25:59.467Z,82.80
2018-02-01T07:28:27.087Z,81.40
2018-02-01T07:30:54.545Z,82.00
2018-02-01T07:33:22.012Z,83.80
2018-02-01T07:35:49.447Z,84.10
2018-02-01T07:38:16.885Z,83.70
2018-02-01T07:40:44.348Z,82.50
2018-02-01T07:43:11.781Z,84.90
2018-02-01T07:45:50.078Z,83.10
2018-02-01T07:48:17.543Z,82.40
2018-02-01T07:50:44.959Z,83.90
2018-02-01T07:53:13.159Z,84.60
2018-02-01T07:55:40.608Z,84.20
2018-02-01T07:58:08.051Z,85.40
2018-02-01T08:00:35.489Z,86.20
2018-02-01T08:03:02.914Z,86.50
2018-02-01T08:05:30.377Z,84.90
2018-02-01T08:07:57.859Z,85.40
2018-02-01T08:10:25.295Z,86.80
2018-02-01T08:12:52.743Z,86.50
2018-02-01T08:15:20.190Z,84.60
2018-02-01T08:17:48.680Z,85.90
2018-02-01T08:20:16.119Z,85.20
2018-02-01T08:22:43.552Z,86.00
2018-02-01T08:25:10.995Z,84.40
2018-02-01T08:27:39.216Z,85.50
2018-02-01T08:30:06.660Z,85.50
2018-02-01T08:32:34.107Z,85.90
2018-02-01T08:35:01.528Z,85.20
2018-02-01T08:37:29.752Z,85.50
2018-02-01T08:39:57.168Z,85.40
2018-02-01T08:42:25.386Z,85.90
2018-02-01T08:44:52.822Z,85.90
2018-02-01T08:47:20.279Z,84.00
2018-02-01T08:49:48.980Z,86.70
2018-02-01T08:52:16.412Z,88.20
2018-02-01T08:54:43.844Z,85.00
2018-02-01T08:57:11.292Z,85.00
2018-02-01T08:59:38.753Z,84.30
2018-02-01T09:02:06.192Z,85.30
2018-02-01T09:04:33.624Z,84.20
2018-02-01T09:07:01.066Z,85.70
2018-02-01T09:09:28.512Z,85.60
2018-02-01T09:11:55.951Z,87.90
2018-02-01T09:14:23.407Z,88.00
2018-02-01T09:16:50.843Z,86.10
2018-02-01T09:19:18.282Z,90.10
2018-02-01T09:21:45.708Z,88.70
2018-02-01T09:24:13.150Z,87.10
2018-02-01T09:26:40.587Z,88.90
2018-02-01T09:29:08.803Z,87.50
2018-02-01T09:31:36.248Z,87.40
2018-02-01T09:34:03.707Z,89.80
2018-02-01T09:36:31.155Z,89.70
2018-02-01T09:38:58.586Z,90.30
2018-02-01T09:41:26.056Z,90.50
2018-02-01T09:43:53.505Z,87.70
2018-02-01T09:46:20.955Z,89.60
2018-02-01T09:48:49.180Z,89.20
2018-02-01T09:51:16.615Z,89.10
2018-02-01T09:53:44.806Z,87.70
2018-02-01T09:56:12.235Z,86.90
2018-02-01T09:58:39.703Z,86.10
2018-02-01T10:01:07.138Z,86.40
2018-02-01T10:03:35.339Z,86.10
2018-02-01T10:06:02.846Z,85.80
2018-02-01T10:08:30.301Z,86.00
2018-02-01T10:10:57.737Z,85.80
2018-02-01T10:13:25.208Z,85.20
2018-02-01T10:15:52.655Z,85.40
2018-02-01T10:18:20.096Z,85.70
2018-02-01T10:20:47.540Z,86.10
2018-02-01T10:23:14.984Z,86.30
2018-02-01T10:25:42.448Z,85.20
2018-02-01T10:28:09.901Z,84.60
2018-02-01T10:30:37.340Z,84.40
2018-02-01T10:33:04.799Z,84.80
2018-02-01T10:35:32.248Z,84.90
2018-02-01T10:37:59.724Z,84.50
2018-02-01T10:40:27.170Z,84.50
2018-02-01T10:42:54.637Z,83.60
2018-02-01T10:45:22.123Z,84.40
2018-02-01T10:47:49.552Z,84.70
2018-02-01T10:50:16.987Z,84.30
2018-02-01T10:52:44.416Z,84.30
2018-02-01T10:55:11.882Z,83.90
2018-02-01T10:57:39.315Z,84.20
2018-02-01T11:00:06.792Z,84.80
2018-02-01T11:02:34.201Z,84.70
2018-02-01T11:05:01.641Z,85.00
2018-02-01T11:07:29.852Z,86.20
2018-02-01T11:09:57.288Z,86.10
2018-02-01T11:12:24.728Z,88.50
2018-02-01T11:14:52.958Z,88.20
2018-02-01T11:17:20.395Z,88.10
2018-02-01T11:19:47.845Z,88.90
2018-02-01T11:22:15.296Z,88.80
2018-02-01T11:24:42.721Z,90.10
2018-02-01T11:27:10.172Z,90.10
2018-02-01T11:29:37.602Z,90.20
2018-02-01T11:32:05.044Z,90.30
2018-02-01T11:34:32.490Z,90.30
2018-02-01T11:36:59.951Z,90.60
2018-02-01T11:39:27.814Z,90.90
2018-02-01T11:41:55.271Z,91.90
2018-02-01T11:44:22.744Z,91.20
2018-02-01T11:46:50.205Z,91.20
2018-02-01T11:49:17.664Z,91.10
2018-02-01T11:51:45.276Z,91.20
2018-02-01T11:54:12.703Z,91.00
2018-02-01T11:56:40.169Z,91.20
2018-02-01T11:59:07.599Z,92.10
2018-02-01T12:01:35.055Z,92.30
2018-02-01T12:04:02.500Z,93.20
2018-02-01T12:06:29.953Z,92.90
2018-02-01T12:08:57.374Z,92.80
2018-02-01T12:11:24.883Z,93.30
2018-02-01T12:13:52.421Z,92.40
2018-02-01T12:16:19.877Z,92.00
2018-02-01T12:18:47.330Z,92.70
2018-02-01T12:21:14.813Z,92.50
2018-02-01T12:23:42.530Z,92.80
2018-02-01T12:26:09.980Z,92.70
2018-02-01T12:28:37.404Z,92.40
2018-02-01T12:31:04.859Z,93.30
2018-02-01T12:33:32.291Z,93.20
2018-02-01T12:35:59.807Z,93.40
2018-02-01T12:38:27.231Z,93.00
2018-02-01T12:40:54.684Z,93.40
2018-02-01T12:43:22.135Z,92.90
2018-02-01T12:45:49.591Z,93.00
2018-02-01T12:48:17.051Z,92.80
2018-02-01T12:50:44.514Z,92.50
2018-02-01T12:53:11.952Z,91.80
2018-02-01T12:55:39.401Z,93.00
2018-02-01T12:58:06.925Z,91.70
2018-02-01T13:00:34.353Z,92.40
2018-02-01T13:03:01.803Z,92.10
2018-02-01T13:05:29.264Z,92.60
2018-02-01T13:07:56.709Z,93.00
2018-02-01T13:10:24.156Z,93.30
2018-02-01T13:12:51.622Z,93.90
2018-02-01T13:15:19.070Z,94.20
2018-02-01T13:17:46.504Z,91.90
2018-02-01T13:20:14.127Z,92.10
2018-02-01T13:22:42.340Z,92.90
2018-02-01T13:25:09.772Z,92.90
2018-02-01T13:27:37.210Z,92.90
2018-02-01T13:30:05.575Z,93.60
2018-02-01T13:32:33.016Z,93.20
2018-02-01T13:35:00.474Z,93.40
2018-02-01T13:37:27.919Z,92.90
2018-02-01T13:39:55.368Z,92.90
2018-02-01T13:42:22.799Z,92.90
2018-02-01T13:44:51.140Z,93.10
2018-02-01T13:47:18.579Z,92.90
2018-02-01T13:49:46.115Z,93.30
2018-02-01T13:52:13.588Z,93.70
2018-02-01T13:54:41.030Z,92.20
2018-02-01T13:57:08.451Z,92.50
2018-02-01T13:59:35.911Z,93.30
2018-02-01T14:02:03.355Z,93.10
2018-02-01T14:04:31.551Z,92.80
2018-02-01T14:06:58.979Z,93.00
2018-02-01T14:09:26.408Z,94.40
2018-02-01T14:11:53.868Z,93.20
2018-02-01T14:14:21.323Z,93.20
2018-02-01T14:16:48.755Z,94.00
2018-02-01T14:19:16.983Z,94.90
2018-02-01T14:21:45.203Z,94.50
2018-02-01T14:24:12.636Z,94.50
2018-02-01T14:26:40.093Z,93.60
2018-02-01T14:29:07.527Z,93.10
2018-02-01T14:31:34.976Z,93.90
2018-02-01T14:34:02.412Z,94.00
2018-02-01T14:36:29.871Z,93.80
2018-02-01T14:38:57.310Z,92.20
2018-02-01T14:41:24.743Z,92.40
2018-02-01T14:43:52.201Z,93.20
2018-02-01T14:46:19.648Z,93.80
2018-02-01T14:48:47.110Z,92.80
2018-02-01T14:51:14.566Z,93.70
2018-02-01T14:53:42.045Z,92.30
2018-02-01T14:56:09.449Z,94.10
2018-02-01T14:58:36.903Z,93.90
2018-02-01T15:01:04.331Z,93.90
2018-02-01T15:03:31.803Z,93.80
2018-02-01T15:05:59.285Z,92.50
2018-02-01T15:08:27.503Z,93.30
2018-02-01T15:10:54.983Z,93.30
2018-02-01T15:13:22.775Z,94.10
2018-02-01T15:15:50.219Z,93.90
2018-02-01T15:18:17.672Z,92.50
2018-02-01T15:20:45.111Z,93.30
2018-02-01T15:23:12.580Z,92.00
2018-02-01T15:25:40.042Z,92.50
2018-02-01T15:28:07.487Z,90.80
2018-02-01T15:30:34.952Z,91.20
2018-02-01T15:33:02.405Z,91.20
2018-02-01T15:35:29.850Z,91.30
2018-02-01T15:37:57.312Z,91.20
2018-02-01T15:40:24.758Z,91.30
2018-02-01T15:42:52.192Z,91.70
2018-02-01T15:45:19.615Z,90.70
2018-02-01T15:47:47.080Z,90.80
2018-02-01T15:50:15.332Z,90.50
2018-02-01T15:52:42.753Z,90.50
2018-02-01T15:55:10.384Z,90.70
2018-02-01T15:57:37.815Z,90.50
2018-02-01T16:00:05.286Z,90.60
2018-02-01T16:02:32.721Z,91.20
2018-02-01T16:05:00.155Z,91.00
2018-02-01T16:07:27.603Z,91.00
2018-02-01T16:09:55.056Z,90.70
2018-02-01T16:12:22.512Z,91.00
2018-02-01T16:14:49.977Z,90.40
2018-02-01T16:17:17.505Z,90.20
2018-02-01T16:19:44.931Z,90.00
2018-02-01T16:22:12.383Z,90.00
2018-02-01T16:24:39.824Z,90.10
2018-02-01T16:27:07.279Z,90.20
2018-02-01T16:29:34.735Z,90.40
2018-02-01T16:32:02.173Z,90.40
2018-02-01T16:34:29.694Z,90.10
2018-02-01T16:36:57.161Z,90.10
2018-02-01T16:39:24.602Z,90.50
2018-02-01T16:41:52.047Z,90.00
2018-02-01T16:44:19.501Z,89.70
2018-02-01T16:46:46.932Z,88.90
2018-02-01T16:49:14.360Z,88.10
2018-02-01T16:51:41.805Z,88.00
2018-02-01T16:54:09.243Z,87.10
2018-02-01T16:56:37.453Z,85.60
2018-02-01T16:59:04.895Z,85.50
2018-02-01T17:01:33.875Z,85.90
2018-02-01T17:04:01.309Z,86.10
2018-02-01T17:06:28.756Z,86.70
2018-02-01T17:08:56.183Z,83.10
2018-02-01T17:11:23.636Z,82.20
2018-02-01T17:13:51.139Z,81.50
2018-02-01T17:16:19.358Z,81.60
2018-02-01T17:18:46.783Z,81.40
2018-02-01T17:21:14.232Z,81.40
2018-02-01T17:23:41.659Z,82.40
2018-02-01T17:26:09.118Z,80.90
2018-02-01T17:28:36.544Z,81.80
2018-02-01T17:31:04.002Z,81.00
2018-02-01T17:33:31.459Z,81.90
2018-02-01T17:35:58.911Z,80.10
2018-02-01T17:38:26.387Z,80.60
2018-02-01T17:40:53.816Z,81.10
2018-02-01T17:43:21.267Z,81.30
2018-02-01T17:45:48.723Z,81.70
2018-02-01T17:48:16.188Z,80.50
2018-02-01T17:50:43.615Z,77.30
2018-02-01T17:53:11.148Z,77.60
2018-02-01T17:55:38.603Z,79.60
2018-02-01T17:58:06.055Z,78.20
2018-02-01T18:00:33.535Z,76.80
2018-02-01T18:03:01.027Z,75.00
2018-02-01T18:05:28.458Z,73.50
2018-02-01T18:07:56.731Z,72.20
2018-02-01T18:10:24.166Z,72.80
2018-02-01T18:12:51.608Z,72.60
2018-02-01T18:15:19.088Z,73.10
2018-02-01T18:17:46.659Z,72.90
2018-02-01T18:20:14.094Z,69.90
2018-02-01T18:22:41.538Z,69.70
2018-02-01T18:25:08.997Z,72.00
2018-02-01T18:27:36.447Z,70.00
2018-02-01T18:30:03.913Z,70.80
2018-02-01T18:32:31.377Z,71.00
2018-02-01T18:34:58.807Z,72.30
2018-02-01T18:37:26.247Z,72.30
2018-02-01T18:39:53.722Z,72.10
2018-02-01T18:42:21.181Z,72.40
2018-02-01T18:44:48.599Z,71.70
2018-02-01T18:47:16.051Z,72.60
2018-02-01T18:49:43.498Z,73.20
2018-02-01T18:52:10.927Z,74.10
2018-02-01T18:54:38.383Z,74.30
2018-02-01T18:57:05.822Z,74.10
2018-02-01T18:59:33.258Z,75.00
2018-02-01T19:02:00.731Z,74.10
2018-02-01T19:04:28.156Z,73.80
2018-02-01T19:06:55.610Z,75.00
2018-02-01T19:09:23.058Z,74.30
2018-02-01T19:11:51.252Z,74.80
2018-02-01T19:14:18.695Z,74.70
2018-02-01T19:16:46.132Z,75.10
2018-02-01T19:19:13.567Z,75.00
2018-02-01T19:21:41.016Z,75.40
2018-02-01T19:24:08.462Z,75.70
2018-02-01T19:26:35.920Z,76.10
2018-02-01T19:29:03.370Z,76.10
2018-02-01T19:31:30.795Z,75.40
2018-02-01T19:33:58.335Z,75.00
2018-02-01T19:36:25.791Z,75.30
2018-02-01T19:38:53.211Z,73.30
2018-02-01T19:41:20.666Z,72.90
2018-02-01T19:43:48.103Z,73.80
2018-02-01T19:46:15.546Z,73.50
2018-02-01T19:48:42.971Z,72.90
2018-02-01T19:51:10.403Z,73.30
2018-02-01T19:53:37.838Z,73.50
2018-02-01T19:56:05.306Z,73.20
2018-02-01T19:58:32.776Z,73.50
2018-02-01T20:01:00.223Z,73.10
2018-02-01T20:03:27.667Z,73.80
2018-02-01T20:05:55.102Z,72.60
2018-02-01T20:08:22.551Z,73.00
2018-02-01T20:10:50.009Z,73.50
2018-02-01T20:13:17.443Z,73.50
2018-02-01T20:15:44.883Z,75.10
2018-02-01T20:18:12.331Z,76.60
2018-02-01T20:20:39.752Z,77.20
2018-02-01T20:23:07.208Z,78.00
2018-02-01T20:25:34.661Z,79.40
2018-02-01T20:28:02.095Z,79.00
2018-02-01T20:30:29.525Z,78.90
2018-02-01T20:32:56.967Z,78.70
2018-02-01T20:35:24.419Z,78.30
2018-02-01T20:37:51.839Z,78.10
2018-02-01T20:40:19.393Z,77.90
2018-02-01T20:42:46.824Z,77.80
2018-02-01T20:45:14.265Z,78.10
2018-02-01T20:47:41.704Z,77.60
2018-02-01T20:50:09.127Z,77.70
2018-02-01T20:52:36.621Z,77.50
2018-02-01T20:55:04.043Z,78.10
2018-02-01T20:57:31.484Z,79.10
2018-02-01T20:59:58.933Z,80.00
2018-02-01T21:02:27.121Z,81.40
2018-02-01T21:04:54.551Z,81.30
2018-02-01T21:07:21.986Z,81.70
2018-02-01T21:09:49.447Z,82.10
2018-02-01T21:12:16.889Z,83.10
2018-02-01T21:14:44.320Z,82.90
2018-02-01T21:17:11.772Z,82.90
2018-02-01T21:19:39.197Z,82.40
2018-02-01T21:22:07.407Z,83.20
2018-02-01T21:24:34.848Z,83.10
2018-02-01T21:27:02.295Z,82.90
2018-02-01T21:29:29.740Z,83.30
2018-02-01T21:31:57.175Z,82.90
2018-02-01T21:34:24.608Z,82.70
2018-02-01T21:36:52.046Z,83.40
2018-02-01T21:39:19.491Z,83.20
2018-02-01T21:41:46.922Z,83.00
2018-02-01T21:44:15.127Z,83.50
2018-02-01T21:46:42.564Z,83.30
2018-02-01T21:49:10.759Z,83.40
2018-02-01T21:51:38.220Z,83.20
2018-02-01T21:54:05.663Z,82.80
2018-02-01T21:56:33.119Z,82.30
2018-02-01T21:59:00.564Z,82.20
2018-02-01T22:01:28.782Z,80.10
2018-02-01T22:03:56.225Z,80.10
2018-02-01T22:06:23.678Z,79.10
2018-02-01T22:08:51.886Z,77.20
2018-02-01T22:11:19.328Z,77.00
2018-02-01T22:13:46.756Z,76.50
2018-02-01T22:16:14.187Z,75.80
2018-02-01T22:18:41.654Z,75.30
2018-02-01T22:21:09.856Z,74.70
2018-02-01T22:23:37.283Z,74.60
2018-02-01T22:26:04.723Z,75.90
2018-02-01T22:28:32.150Z,76.80
2018-02-01T22:30:59.583Z,76.60
2018-02-01T22:33:27.018Z,76.70
2018-02-01T22:35:54.455Z,76.10
2018-02-01T22:38:21.885Z,75.50
2018-02-01T22:40:49.349Z,75.40
2018-02-01T22:43:16.783Z,75.20
2018-02-01T22:45:44.220Z,74.90
2018-02-01T22:48:11.677Z,75.30
2018-02-01T22:50:39.103Z,74.90
2018-02-01T22:53:07.311Z,75.00
2018-02-01T22:55:34.739Z,74.80
2018-02-01T22:58:02.175Z,74.90
2018-02-01T23:00:29.606Z,75.30
2018-02-01T23:02:57.037Z,75.70
2018-02-01T23:05:24.477Z,76.30
2018-02-01T23:07:51.914Z,75.90
2018-02-01T23:10:19.339Z,76.10
2018-02-01T23:12:46.801Z,75.00
2018-02-01T23:15:14.239Z,75.50
2018-02-01T23:17:41.700Z,75.50
2018-02-01T23:20:09.137Z,75.00
2018-02-01T23:22:36.570Z,74.60
2018-02-01T23:25:04.000Z,74.80
2018-02-01T23:27:31.442Z,75.00
2018-02-01T23:29:58.883Z,74.90
2018-02-01T23:32:26.339Z,73.80
2018-02-01T23:34:53.771Z,74.70
2018-02-01T23:37:21.215Z,76.40
2018-02-01T23:39:48.636Z,77.00
2018-02-01T23:42:16.071Z,78.00
2018-02-01T23:44:43.530Z,78.40
2018-02-01T23:47:10.955Z,78.70
2018-02-01T23:49:38.382Z,78.20
2018-02-01T23:52:06.605Z,78.90
2018-02-01T23:54:34.042Z,78.90
2018-02-01T23:57:01.475Z,79.20
2018-02-01T23:59:28.903Z,78.90
